sensor_id;sensor_type;location;lat;lon;timestamp;P1;durP1;ratioP1;P2;durP2;ratioP2
44328;SDS011;30039;51.462;6.892;2024-01-30T00:00:15;6.93;;;4.80;;
44328;SDS011;30039;51.462;6.892;2024-01-30T00:03:01;9.38;;;5.63;;
44328;SDS011;30039;51.462;6.892;2024-01-30T00:05:46;8.98;;;5.65;;
44328;SDS011;30039;51.462;6.892;2024-01-30T00:08:32;9.45;;;5.43;;
44328;SDS011;30039;51.462;6.892;2024-01-30T00:11:18;8.48;;;5.47;;
44328;SDS011;30039;51.462;6.892;2024-01-30T00:14:04;9.52;;;5.82;;
44328;SDS011;30039;51.462;6.892;2024-01-30T00:16:53;6.88;;;5.50;;
44328;SDS011;30039;51.462;6.892;2024-01-30T00:19:38;9.55;;;5.40;;
44328;SDS011;30039;51.462;6.892;2024-01-30T00:22:24;9.15;;;5.32;;
44328;SDS011;30039;51.462;6.892;2024-01-30T00:25:09;8.88;;;5.63;;
44328;SDS011;30039;51.462;6.892;2024-01-30T00:27:56;10.73;;;5.78;;
44328;SDS011;30039;51.462;6.892;2024-01-30T00:30:41;9.73;;;5.70;;
44328;SDS011;30039;51.462;6.892;2024-01-30T00:33:27;9.43;;;5.53;;
44328;SDS011;30039;51.462;6.892;2024-01-30T00:36:12;10.02;;;5.78;;
44328;SDS011;30039;51.462;6.892;2024-01-30T00:38:58;8.82;;;5.55;;
44328;SDS011;30039;51.462;6.892;2024-01-30T00:41:43;9.82;;;6.25;;
44328;SDS011;30039;51.462;6.892;2024-01-30T00:44:30;10.27;;;6.22;;
44328;SDS011;30039;51.462;6.892;2024-01-30T00:47:15;11.75;;;5.93;;
44328;SDS011;30039;51.462;6.892;2024-01-30T00:50:01;10.25;;;5.80;;
44328;SDS011;30039;51.462;6.892;2024-01-30T00:52:46;10.25;;;5.45;;
44328;SDS011;30039;51.462;6.892;2024-01-30T00:55:32;10.88;;;6.07;;
44328;SDS011;30039;51.462;6.892;2024-01-30T00:58:18;9.25;;;5.90;;
44328;SDS011;30039;51.462;6.892;2024-01-30T01:01:04;13.07;;;6.22;;
44328;SDS011;30039;51.462;6.892;2024-01-30T01:03:50;8.05;;;5.97;;
44328;SDS011;30039;51.462;6.892;2024-01-30T01:06:35;9.20;;;5.95;;
44328;SDS011;30039;51.462;6.892;2024-01-30T01:09:21;9.57;;;5.78;;
44328;SDS011;30039;51.462;6.892;2024-01-30T01:12:07;9.90;;;6.07;;
44328;SDS011;30039;51.462;6.892;2024-01-30T01:14:52;10.20;;;6.15;;
44328;SDS011;30039;51.462;6.892;2024-01-30T01:17:38;12.65;;;6.40;;
44328;SDS011;30039;51.462;6.892;2024-01-30T01:20:24;13.48;;;6.32;;
44328;SDS011;30039;51.462;6.892;2024-01-30T01:23:09;10.27;;;5.93;;
44328;SDS011;30039;51.462;6.892;2024-01-30T01:25:55;9.98;;;5.95;;
44328;SDS011;30039;51.462;6.892;2024-01-30T01:28:41;10.07;;;6.43;;
44328;SDS011;30039;51.462;6.892;2024-01-30T01:31:26;11.23;;;6.18;;
44328;SDS011;30039;51.462;6.892;2024-01-30T01:34:15;11.38;;;6.32;;
44328;SDS011;30039;51.462;6.892;2024-01-30T01:37:00;9.73;;;6.20;;
44328;SDS011;30039;51.462;6.892;2024-01-30T01:39:46;10.55;;;5.93;;
44328;SDS011;30039;51.462;6.892;2024-01-30T01:42:31;13.18;;;6.07;;
44328;SDS011;30039;51.462;6.892;2024-01-30T01:45:17;11.48;;;6.43;;
44328;SDS011;30039;51.462;6.892;2024-01-30T01:48:03;9.20;;;5.93;;
44328;SDS011;30039;51.462;6.892;2024-01-30T01:50:48;8.13;;;5.90;;
44328;SDS011;30039;51.462;6.892;2024-01-30T01:53:34;11.45;;;6.03;;
44328;SDS011;30039;51.462;6.892;2024-01-30T01:56:20;9.05;;;5.72;;
44328;SDS011;30039;51.462;6.892;2024-01-30T01:59:07;9.98;;;5.85;;
44328;SDS011;30039;51.462;6.892;2024-01-30T02:01:54;11.98;;;6.07;;
44328;SDS011;30039;51.462;6.892;2024-01-30T02:04:40;10.38;;;5.55;;
44328;SDS011;30039;51.462;6.892;2024-01-30T02:07:26;10.43;;;6.25;;
44328;SDS011;30039;51.462;6.892;2024-01-30T02:10:12;12.88;;;6.13;;
44328;SDS011;30039;51.462;6.892;2024-01-30T02:12:58;10.65;;;5.72;;
44328;SDS011;30039;51.462;6.892;2024-01-30T02:15:43;11.48;;;6.18;;
44328;SDS011;30039;51.462;6.892;2024-01-30T02:18:34;10.10;;;5.68;;
44328;SDS011;30039;51.462;6.892;2024-01-30T02:21:19;9.65;;;6.05;;
44328;SDS011;30039;51.462;6.892;2024-01-30T02:24:05;9.65;;;5.78;;
44328;SDS011;30039;51.462;6.892;2024-01-30T02:26:51;10.80;;;6.28;;
44328;SDS011;30039;51.462;6.892;2024-01-30T02:29:36;9.15;;;5.40;;
44328;SDS011;30039;51.462;6.892;2024-01-30T02:32:22;9.68;;;5.72;;
44328;SDS011;30039;51.462;6.892;2024-01-30T02:35:08;12.23;;;6.25;;
44328;SDS011;30039;51.462;6.892;2024-01-30T02:37:53;14.30;;;6.65;;
44328;SDS011;30039;51.462;6.892;2024-01-30T02:40:39;9.63;;;6.15;;
44328;SDS011;30039;51.462;6.892;2024-01-30T02:43:25;13.35;;;5.63;;
44328;SDS011;30039;51.462;6.892;2024-01-30T02:46:10;9.68;;;5.85;;
44328;SDS011;30039;51.462;6.892;2024-01-30T02:48:56;10.02;;;5.63;;
44328;SDS011;30039;51.462;6.892;2024-01-30T02:51:42;9.77;;;5.53;;
44328;SDS011;30039;51.462;6.892;2024-01-30T02:54:28;9.45;;;5.60;;
44328;SDS011;30039;51.462;6.892;2024-01-30T02:57:13;11.43;;;5.88;;
44328;SDS011;30039;51.462;6.892;2024-01-30T02:59:59;10.88;;;5.78;;
44328;SDS011;30039;51.462;6.892;2024-01-30T03:02:44;13.00;;;6.20;;
44328;SDS011;30039;51.462;6.892;2024-01-30T03:05:30;11.45;;;5.80;;
44328;SDS011;30039;51.462;6.892;2024-01-30T03:08:15;12.48;;;5.85;;
44328;SDS011;30039;51.462;6.892;2024-01-30T03:11:01;8.57;;;5.05;;
44328;SDS011;30039;51.462;6.892;2024-01-30T03:13:47;9.88;;;5.45;;
44328;SDS011;30039;51.462;6.892;2024-01-30T03:16:32;7.45;;;5.28;;
44328;SDS011;30039;51.462;6.892;2024-01-30T03:19:18;8.85;;;5.50;;
44328;SDS011;30039;51.462;6.892;2024-01-30T03:22:04;9.52;;;5.35;;
44328;SDS011;30039;51.462;6.892;2024-01-30T03:24:49;10.23;;;5.90;;
44328;SDS011;30039;51.462;6.892;2024-01-30T03:27:35;9.98;;;5.90;;
44328;SDS011;30039;51.462;6.892;2024-01-30T03:30:20;8.50;;;5.25;;
44328;SDS011;30039;51.462;6.892;2024-01-30T03:33:06;13.48;;;5.90;;
44328;SDS011;30039;51.462;6.892;2024-01-30T03:35:52;7.25;;;5.10;;
44328;SDS011;30039;51.462;6.892;2024-01-30T03:38:37;10.77;;;5.45;;
44328;SDS011;30039;51.462;6.892;2024-01-30T03:41:23;8.38;;;5.53;;
44328;SDS011;30039;51.462;6.892;2024-01-30T03:44:08;9.65;;;5.20;;
44328;SDS011;30039;51.462;6.892;2024-01-30T03:46:54;11.52;;;5.63;;
44328;SDS011;30039;51.462;6.892;2024-01-30T03:49:40;8.82;;;5.72;;
44328;SDS011;30039;51.462;6.892;2024-01-30T03:52:25;9.77;;;5.55;;
44328;SDS011;30039;51.462;6.892;2024-01-30T03:55:11;10.32;;;5.68;;
44328;SDS011;30039;51.462;6.892;2024-01-30T03:57:56;8.50;;;5.63;;
44328;SDS011;30039;51.462;6.892;2024-01-30T04:00:42;8.20;;;5.20;;
44328;SDS011;30039;51.462;6.892;2024-01-30T04:03:27;9.63;;;5.60;;
44328;SDS011;30039;51.462;6.892;2024-01-30T04:06:13;8.70;;;5.18;;
44328;SDS011;30039;51.462;6.892;2024-01-30T04:08:59;9.65;;;5.30;;
44328;SDS011;30039;51.462;6.892;2024-01-30T04:11:44;9.25;;;5.30;;
44328;SDS011;30039;51.462;6.892;2024-01-30T04:14:30;8.88;;;6.25;;
44328;SDS011;30039;51.462;6.892;2024-01-30T04:17:15;9.82;;;5.90;;
44328;SDS011;30039;51.462;6.892;2024-01-30T04:20:01;7.25;;;5.35;;
44328;SDS011;30039;51.462;6.892;2024-01-30T04:22:47;10.30;;;5.57;;
44328;SDS011;30039;51.462;6.892;2024-01-30T04:25:32;10.38;;;5.60;;
44328;SDS011;30039;51.462;6.892;2024-01-30T04:28:18;10.90;;;5.10;;
44328;SDS011;30039;51.462;6.892;2024-01-30T04:31:03;9.10;;;5.10;;
44328;SDS011;30039;51.462;6.892;2024-01-30T04:33:49;7.57;;;5.13;;
44328;SDS011;30039;51.462;6.892;2024-01-30T04:36:35;9.40;;;5.57;;
44328;SDS011;30039;51.462;6.892;2024-01-30T04:39:20;8.38;;;5.32;;
44328;SDS011;30039;51.462;6.892;2024-01-30T04:42:06;9.15;;;5.50;;
44328;SDS011;30039;51.462;6.892;2024-01-30T04:44:51;8.73;;;5.35;;
44328;SDS011;30039;51.462;6.892;2024-01-30T04:47:37;7.53;;;5.05;;
44328;SDS011;30039;51.462;6.892;2024-01-30T04:50:24;8.20;;;5.35;;
44328;SDS011;30039;51.462;6.892;2024-01-30T04:53:09;7.82;;;4.95;;
44328;SDS011;30039;51.462;6.892;2024-01-30T04:55:55;9.35;;;5.28;;
44328;SDS011;30039;51.462;6.892;2024-01-30T04:58:40;12.00;;;5.60;;
44328;SDS011;30039;51.462;6.892;2024-01-30T05:01:26;11.00;;;4.95;;
44328;SDS011;30039;51.462;6.892;2024-01-30T05:04:12;8.27;;;5.40;;
44328;SDS011;30039;51.462;6.892;2024-01-30T05:06:57;9.65;;;5.30;;
44328;SDS011;30039;51.462;6.892;2024-01-30T05:09:43;7.85;;;5.30;;
44328;SDS011;30039;51.462;6.892;2024-01-30T05:12:28;9.80;;;5.45;;
44328;SDS011;30039;51.462;6.892;2024-01-30T05:15:14;9.90;;;5.38;;
44328;SDS011;30039;51.462;6.892;2024-01-30T05:18:00;8.32;;;5.30;;
44328;SDS011;30039;51.462;6.892;2024-01-30T05:20:45;7.75;;;4.90;;
44328;SDS011;30039;51.462;6.892;2024-01-30T05:23:31;8.73;;;5.03;;
44328;SDS011;30039;51.462;6.892;2024-01-30T05:26:16;8.30;;;5.10;;
44328;SDS011;30039;51.462;6.892;2024-01-30T05:29:02;12.43;;;5.43;;
44328;SDS011;30039;51.462;6.892;2024-01-30T05:31:48;7.78;;;4.72;;
44328;SDS011;30039;51.462;6.892;2024-01-30T05:34:33;8.05;;;4.95;;
44328;SDS011;30039;51.462;6.892;2024-01-30T05:37:19;7.03;;;5.25;;
44328;SDS011;30039;51.462;6.892;2024-01-30T05:40:05;8.82;;;5.43;;
44328;SDS011;30039;51.462;6.892;2024-01-30T05:42:50;8.82;;;5.00;;
44328;SDS011;30039;51.462;6.892;2024-01-30T05:45:36;9.05;;;5.13;;
44328;SDS011;30039;51.462;6.892;2024-01-30T05:48:22;9.05;;;4.80;;
44328;SDS011;30039;51.462;6.892;2024-01-30T05:51:07;8.50;;;5.15;;
44328;SDS011;30039;51.462;6.892;2024-01-30T05:53:53;9.13;;;4.90;;
44328;SDS011;30039;51.462;6.892;2024-01-30T05:56:39;8.93;;;4.90;;
44328;SDS011;30039;51.462;6.892;2024-01-30T05:59:25;11.50;;;4.68;;
44328;SDS011;30039;51.462;6.892;2024-01-30T06:02:10;8.07;;;4.93;;
44328;SDS011;30039;51.462;6.892;2024-01-30T06:04:56;11.07;;;5.35;;
44328;SDS011;30039;51.462;6.892;2024-01-30T06:07:42;9.30;;;5.45;;
44328;SDS011;30039;51.462;6.892;2024-01-30T06:10:27;9.90;;;5.32;;
44328;SDS011;30039;51.462;6.892;2024-01-30T06:13:13;10.95;;;5.57;;
44328;SDS011;30039;51.462;6.892;2024-01-30T06:15:58;7.80;;;5.18;;
44328;SDS011;30039;51.462;6.892;2024-01-30T06:18:44;9.52;;;5.60;;
44328;SDS011;30039;51.462;6.892;2024-01-30T06:21:30;10.05;;;4.82;;
44328;SDS011;30039;51.462;6.892;2024-01-30T06:24:17;8.55;;;5.18;;
44328;SDS011;30039;51.462;6.892;2024-01-30T06:27:02;11.23;;;5.00;;
44328;SDS011;30039;51.462;6.892;2024-01-30T06:29:48;11.77;;;5.28;;
44328;SDS011;30039;51.462;6.892;2024-01-30T06:32:35;7.40;;;4.82;;
44328;SDS011;30039;51.462;6.892;2024-01-30T06:35:20;9.43;;;5.28;;
44328;SDS011;30039;51.462;6.892;2024-01-30T06:38:06;8.10;;;5.60;;
44328;SDS011;30039;51.462;6.892;2024-01-30T06:40:52;8.85;;;5.60;;
44328;SDS011;30039;51.462;6.892;2024-01-30T06:43:38;8.98;;;4.85;;
44328;SDS011;30039;51.462;6.892;2024-01-30T06:46:23;9.20;;;4.95;;
44328;SDS011;30039;51.462;6.892;2024-01-30T06:49:09;7.70;;;4.95;;
44328;SDS011;30039;51.462;6.892;2024-01-30T06:51:54;8.30;;;5.13;;
44328;SDS011;30039;51.462;6.892;2024-01-30T06:54:40;10.25;;;4.70;;
44328;SDS011;30039;51.462;6.892;2024-01-30T06:57:25;9.02;;;5.22;;
44328;SDS011;30039;51.462;6.892;2024-01-30T07:00:13;8.73;;;4.95;;
44328;SDS011;30039;51.462;6.892;2024-01-30T07:03:00;10.02;;;5.22;;
44328;SDS011;30039;51.462;6.892;2024-01-30T07:05:45;9.90;;;5.72;;
44328;SDS011;30039;51.462;6.892;2024-01-30T07:08:31;8.10;;;4.95;;
44328;SDS011;30039;51.462;6.892;2024-01-30T07:11:20;10.55;;;4.93;;
44328;SDS011;30039;51.462;6.892;2024-01-30T07:14:09;8.70;;;5.03;;
44328;SDS011;30039;51.462;6.892;2024-01-30T07:16:55;8.93;;;5.43;;
44328;SDS011;30039;51.462;6.892;2024-01-30T07:19:40;7.20;;;4.95;;
44328;SDS011;30039;51.462;6.892;2024-01-30T07:22:26;6.85;;;4.85;;
44328;SDS011;30039;51.462;6.892;2024-01-30T07:25:11;8.90;;;5.40;;
44328;SDS011;30039;51.462;6.892;2024-01-30T07:27:57;7.40;;;5.00;;
44328;SDS011;30039;51.462;6.892;2024-01-30T07:30:43;7.68;;;4.47;;
44328;SDS011;30039;51.462;6.892;2024-01-30T07:33:28;11.30;;;5.22;;
44328;SDS011;30039;51.462;6.892;2024-01-30T07:36:14;11.88;;;5.43;;
44328;SDS011;30039;51.462;6.892;2024-01-30T07:38:59;7.82;;;4.70;;
44328;SDS011;30039;51.462;6.892;2024-01-30T07:41:45;8.90;;;4.57;;
44328;SDS011;30039;51.462;6.892;2024-01-30T07:44:30;8.93;;;4.78;;
44328;SDS011;30039;51.462;6.892;2024-01-30T07:47:16;7.85;;;4.72;;
44328;SDS011;30039;51.462;6.892;2024-01-30T07:50:02;10.88;;;4.50;;
44328;SDS011;30039;51.462;6.892;2024-01-30T07:52:47;8.65;;;5.22;;
44328;SDS011;30039;51.462;6.892;2024-01-30T07:55:36;8.27;;;5.30;;
44328;SDS011;30039;51.462;6.892;2024-01-30T07:58:22;10.15;;;4.75;;
44328;SDS011;30039;51.462;6.892;2024-01-30T08:01:09;11.40;;;5.10;;
44328;SDS011;30039;51.462;6.892;2024-01-30T08:03:54;7.60;;;4.97;;
44328;SDS011;30039;51.462;6.892;2024-01-30T08:06:40;9.93;;;5.78;;
44328;SDS011;30039;51.462;6.892;2024-01-30T08:09:25;10.10;;;5.13;;
44328;SDS011;30039;51.462;6.892;2024-01-30T08:12:11;9.02;;;5.00;;
44328;SDS011;30039;51.462;6.892;2024-01-30T08:14:58;9.32;;;5.18;;
44328;SDS011;30039;51.462;6.892;2024-01-30T08:17:43;11.43;;;5.63;;
44328;SDS011;30039;51.462;6.892;2024-01-30T08:20:30;9.18;;;5.32;;
44328;SDS011;30039;51.462;6.892;2024-01-30T08:23:15;10.27;;;5.03;;
44328;SDS011;30039;51.462;6.892;2024-01-30T08:26:01;8.00;;;5.25;;
44328;SDS011;30039;51.462;6.892;2024-01-30T08:28:46;6.40;;;4.95;;
44328;SDS011;30039;51.462;6.892;2024-01-30T08:31:32;8.13;;;5.25;;
44328;SDS011;30039;51.462;6.892;2024-01-30T08:34:17;10.45;;;4.95;;
44328;SDS011;30039;51.462;6.892;2024-01-30T08:37:03;9.93;;;5.13;;
44328;SDS011;30039;51.462;6.892;2024-01-30T08:39:49;11.35;;;5.50;;
44328;SDS011;30039;51.462;6.892;2024-01-30T08:42:34;8.50;;;4.82;;
44328;SDS011;30039;51.462;6.892;2024-01-30T08:45:20;9.20;;;4.93;;
44328;SDS011;30039;51.462;6.892;2024-01-30T08:48:05;9.15;;;5.20;;
44328;SDS011;30039;51.462;6.892;2024-01-30T08:50:51;7.93;;;4.70;;
44328;SDS011;30039;51.462;6.892;2024-01-30T08:53:37;10.23;;;5.28;;
44328;SDS011;30039;51.462;6.892;2024-01-30T08:56:22;9.68;;;5.20;;
44328;SDS011;30039;51.462;6.892;2024-01-30T08:59:08;7.82;;;4.95;;
44328;SDS011;30039;51.462;6.892;2024-01-30T09:01:54;9.52;;;5.07;;
44328;SDS011;30039;51.462;6.892;2024-01-30T09:04:40;8.80;;;5.18;;
44328;SDS011;30039;51.462;6.892;2024-01-30T09:07:26;9.45;;;5.50;;
44328;SDS011;30039;51.462;6.892;2024-01-30T09:10:11;10.60;;;5.40;;
44328;SDS011;30039;51.462;6.892;2024-01-30T09:12:57;8.35;;;5.22;;
44328;SDS011;30039;51.462;6.892;2024-01-30T09:15:42;9.93;;;5.35;;
44328;SDS011;30039;51.462;6.892;2024-01-30T09:18:28;10.65;;;5.45;;
44328;SDS011;30039;51.462;6.892;2024-01-30T09:21:14;9.98;;;5.18;;
44328;SDS011;30039;51.462;6.892;2024-01-30T09:24:03;10.35;;;5.35;;
44328;SDS011;30039;51.462;6.892;2024-01-30T09:26:51;10.40;;;5.18;;
44328;SDS011;30039;51.462;6.892;2024-01-30T09:29:37;9.57;;;5.10;;
44328;SDS011;30039;51.462;6.892;2024-01-30T09:32:22;9.18;;;5.28;;
44328;SDS011;30039;51.462;6.892;2024-01-30T09:35:08;10.13;;;4.85;;
44328;SDS011;30039;51.462;6.892;2024-01-30T09:37:54;10.82;;;5.30;;
44328;SDS011;30039;51.462;6.892;2024-01-30T09:40:39;10.52;;;5.38;;
44328;SDS011;30039;51.462;6.892;2024-01-30T09:43:27;11.00;;;5.15;;
44328;SDS011;30039;51.462;6.892;2024-01-30T09:46:14;7.95;;;4.85;;
44328;SDS011;30039;51.462;6.892;2024-01-30T09:49:01;9.50;;;4.90;;
44328;SDS011;30039;51.462;6.892;2024-01-30T09:51:47;8.43;;;5.45;;
44328;SDS011;30039;51.462;6.892;2024-01-30T09:54:33;7.63;;;4.70;;
44328;SDS011;30039;51.462;6.892;2024-01-30T09:57:22;7.60;;;4.50;;
44328;SDS011;30039;51.462;6.892;2024-01-30T10:00:08;8.63;;;4.80;;
44328;SDS011;30039;51.462;6.892;2024-01-30T10:02:54;10.85;;;5.32;;
44328;SDS011;30039;51.462;6.892;2024-01-30T10:05:39;10.88;;;4.75;;
44328;SDS011;30039;51.462;6.892;2024-01-30T10:08:26;7.68;;;5.00;;
44328;SDS011;30039;51.462;6.892;2024-01-30T10:11:11;13.43;;;5.20;;
44328;SDS011;30039;51.462;6.892;2024-01-30T10:13:57;7.63;;;4.70;;
44328;SDS011;30039;51.462;6.892;2024-01-30T10:16:45;8.43;;;4.43;;
44328;SDS011;30039;51.462;6.892;2024-01-30T10:19:31;8.80;;;4.53;;
44328;SDS011;30039;51.462;6.892;2024-01-30T10:22:17;8.68;;;5.05;;
44328;SDS011;30039;51.462;6.892;2024-01-30T10:25:02;9.70;;;4.82;;
44328;SDS011;30039;51.462;6.892;2024-01-30T10:27:52;9.77;;;4.95;;
44328;SDS011;30039;51.462;6.892;2024-01-30T10:30:39;9.60;;;4.72;;
44328;SDS011;30039;51.462;6.892;2024-01-30T10:33:25;10.90;;;5.38;;
44328;SDS011;30039;51.462;6.892;2024-01-30T10:36:13;8.90;;;5.22;;
44328;SDS011;30039;51.462;6.892;2024-01-30T10:38:59;8.50;;;4.95;;
44328;SDS011;30039;51.462;6.892;2024-01-30T10:41:44;8.25;;;4.72;;
44328;SDS011;30039;51.462;6.892;2024-01-30T10:44:36;13.65;;;4.97;;
44328;SDS011;30039;51.462;6.892;2024-01-30T10:47:25;10.10;;;4.93;;
44328;SDS011;30039;51.462;6.892;2024-01-30T10:50:11;7.35;;;4.97;;
44328;SDS011;30039;51.462;6.892;2024-01-30T10:52:57;11.57;;;5.32;;
44328;SDS011;30039;51.462;6.892;2024-01-30T10:55:44;7.47;;;5.10;;
44328;SDS011;30039;51.462;6.892;2024-01-30T10:58:31;7.38;;;4.80;;
44328;SDS011;30039;51.462;6.892;2024-01-30T11:01:17;9.73;;;4.35;;
44328;SDS011;30039;51.462;6.892;2024-01-30T11:04:03;10.38;;;5.35;;
44328;SDS011;30039;51.462;6.892;2024-01-30T11:06:49;11.10;;;5.35;;
44328;SDS011;30039;51.462;6.892;2024-01-30T11:09:36;10.32;;;5.40;;
44328;SDS011;30039;51.462;6.892;2024-01-30T11:12:22;10.70;;;5.22;;
44328;SDS011;30039;51.462;6.892;2024-01-30T11:17:54;11.05;;;5.30;;
44328;SDS011;30039;51.462;6.892;2024-01-30T11:20:39;11.45;;;5.38;;
44328;SDS011;30039;51.462;6.892;2024-01-30T11:23:33;10.50;;;5.65;;
44328;SDS011;30039;51.462;6.892;2024-01-30T11:26:23;13.60;;;5.35;;
44328;SDS011;30039;51.462;6.892;2024-01-30T11:29:08;9.75;;;5.00;;
44328;SDS011;30039;51.462;6.892;2024-01-30T11:31:55;9.93;;;4.88;;
44328;SDS011;30039;51.462;6.892;2024-01-30T11:34:41;10.25;;;5.80;;
44328;SDS011;30039;51.462;6.892;2024-01-30T11:37:26;8.73;;;5.45;;
44328;SDS011;30039;51.462;6.892;2024-01-30T11:40:12;12.25;;;6.10;;
44328;SDS011;30039;51.462;6.892;2024-01-30T11:42:58;8.20;;;5.30;;
44328;SDS011;30039;51.462;6.892;2024-01-30T11:45:44;11.02;;;5.30;;
44328;SDS011;30039;51.462;6.892;2024-01-30T11:48:30;9.82;;;5.53;;
44328;SDS011;30039;51.462;6.892;2024-01-30T11:51:16;9.23;;;4.65;;
44328;SDS011;30039;51.462;6.892;2024-01-30T11:54:03;10.38;;;5.45;;
44328;SDS011;30039;51.462;6.892;2024-01-30T11:56:49;11.60;;;5.28;;
44328;SDS011;30039;51.462;6.892;2024-01-30T11:59:35;11.43;;;5.53;;
44328;SDS011;30039;51.462;6.892;2024-01-30T12:02:23;12.82;;;5.68;;
44328;SDS011;30039;51.462;6.892;2024-01-30T12:05:09;10.85;;;5.47;;
44328;SDS011;30039;51.462;6.892;2024-01-30T12:07:54;11.00;;;5.70;;
44328;SDS011;30039;51.462;6.892;2024-01-30T12:10:44;9.93;;;5.43;;
44328;SDS011;30039;51.462;6.892;2024-01-30T12:13:29;13.10;;;6.05;;
44328;SDS011;30039;51.462;6.892;2024-01-30T12:16:15;9.80;;;5.15;;
44328;SDS011;30039;51.462;6.892;2024-01-30T12:19:00;12.00;;;5.28;;
44328;SDS011;30039;51.462;6.892;2024-01-30T12:21:47;10.13;;;5.60;;
44328;SDS011;30039;51.462;6.892;2024-01-30T12:24:33;7.88;;;4.93;;
44328;SDS011;30039;51.462;6.892;2024-01-30T12:27:18;9.93;;;5.25;;
44328;SDS011;30039;51.462;6.892;2024-01-30T12:30:07;13.35;;;6.00;;
44328;SDS011;30039;51.462;6.892;2024-01-30T12:32:53;9.93;;;5.30;;
44328;SDS011;30039;51.462;6.892;2024-01-30T12:35:39;8.65;;;5.70;;
44328;SDS011;30039;51.462;6.892;2024-01-30T12:38:25;9.25;;;5.35;;
44328;SDS011;30039;51.462;6.892;2024-01-30T12:41:10;10.38;;;5.45;;
44328;SDS011;30039;51.462;6.892;2024-01-30T12:43:57;11.25;;;5.45;;
44328;SDS011;30039;51.462;6.892;2024-01-30T12:46:43;9.02;;;5.45;;
44328;SDS011;30039;51.462;6.892;2024-01-30T12:49:28;10.30;;;5.20;;
44328;SDS011;30039;51.462;6.892;2024-01-30T12:52:15;12.00;;;5.95;;
44328;SDS011;30039;51.462;6.892;2024-01-30T12:55:01;11.23;;;5.82;;
44328;SDS011;30039;51.462;6.892;2024-01-30T12:57:49;10.57;;;5.72;;
44328;SDS011;30039;51.462;6.892;2024-01-30T13:00:35;13.05;;;5.47;;
44328;SDS011;30039;51.462;6.892;2024-01-30T13:03:21;10.98;;;5.55;;
44328;SDS011;30039;51.462;6.892;2024-01-30T13:06:07;15.90;;;6.35;;
44328;SDS011;30039;51.462;6.892;2024-01-30T13:08:53;14.27;;;6.40;;
44328;SDS011;30039;51.462;6.892;2024-01-30T13:11:38;9.52;;;5.28;;
44328;SDS011;30039;51.462;6.892;2024-01-30T13:14:24;13.02;;;5.65;;
44328;SDS011;30039;51.462;6.892;2024-01-30T13:17:10;17.58;;;6.65;;
44328;SDS011;30039;51.462;6.892;2024-01-30T13:19:55;12.77;;;5.70;;
44328;SDS011;30039;51.462;6.892;2024-01-30T13:22:41;12.13;;;5.78;;
44328;SDS011;30039;51.462;6.892;2024-01-30T13:25:26;13.20;;;5.22;;
44328;SDS011;30039;51.462;6.892;2024-01-30T13:28:12;9.77;;;5.30;;
44328;SDS011;30039;51.462;6.892;2024-01-30T13:30:58;10.60;;;6.20;;
44328;SDS011;30039;51.462;6.892;2024-01-30T13:33:44;15.02;;;6.45;;
44328;SDS011;30039;51.462;6.892;2024-01-30T13:36:29;11.63;;;6.18;;
44328;SDS011;30039;51.462;6.892;2024-01-30T13:39:15;9.43;;;5.38;;
44328;SDS011;30039;51.462;6.892;2024-01-30T13:42:00;12.77;;;6.10;;
44328;SDS011;30039;51.462;6.892;2024-01-30T13:44:46;11.10;;;5.80;;
44328;SDS011;30039;51.462;6.892;2024-01-30T13:47:32;14.18;;;6.32;;
44328;SDS011;30039;51.462;6.892;2024-01-30T13:50:17;9.90;;;5.88;;
44328;SDS011;30039;51.462;6.892;2024-01-30T13:53:03;12.55;;;6.55;;
44328;SDS011;30039;51.462;6.892;2024-01-30T13:55:49;10.82;;;5.93;;
44328;SDS011;30039;51.462;6.892;2024-01-30T13:58:35;11.45;;;5.93;;
44328;SDS011;30039;51.462;6.892;2024-01-30T14:01:21;10.52;;;5.82;;
44328;SDS011;30039;51.462;6.892;2024-01-30T14:04:07;12.85;;;6.22;;
44328;SDS011;30039;51.462;6.892;2024-01-30T14:06:52;10.30;;;6.03;;
44328;SDS011;30039;51.462;6.892;2024-01-30T14:09:38;10.40;;;6.30;;
44328;SDS011;30039;51.462;6.892;2024-01-30T14:12:24;9.50;;;6.53;;
44328;SDS011;30039;51.462;6.892;2024-01-30T14:15:09;12.48;;;6.18;;
44328;SDS011;30039;51.462;6.892;2024-01-30T14:17:55;12.60;;;6.13;;
44328;SDS011;30039;51.462;6.892;2024-01-30T14:20:41;8.73;;;5.97;;
44328;SDS011;30039;51.462;6.892;2024-01-30T14:23:27;11.77;;;6.15;;
44328;SDS011;30039;51.462;6.892;2024-01-30T14:26:12;14.60;;;5.97;;
44328;SDS011;30039;51.462;6.892;2024-01-30T14:28:58;10.82;;;5.93;;
44328;SDS011;30039;51.462;6.892;2024-01-30T14:31:43;9.60;;;5.57;;
44328;SDS011;30039;51.462;6.892;2024-01-30T14:34:29;10.18;;;5.60;;
44328;SDS011;30039;51.462;6.892;2024-01-30T14:37:15;8.70;;;5.60;;
44328;SDS011;30039;51.462;6.892;2024-01-30T14:40:00;14.07;;;5.88;;
44328;SDS011;30039;51.462;6.892;2024-01-30T14:42:46;9.95;;;5.82;;
44328;SDS011;30039;51.462;6.892;2024-01-30T14:45:32;8.52;;;5.47;;
44328;SDS011;30039;51.462;6.892;2024-01-30T14:48:18;8.15;;;5.15;;
44328;SDS011;30039;51.462;6.892;2024-01-30T14:51:03;9.70;;;5.68;;
44328;SDS011;30039;51.462;6.892;2024-01-30T14:53:49;9.20;;;5.05;;
44328;SDS011;30039;51.462;6.892;2024-01-30T14:56:35;8.85;;;4.88;;
44328;SDS011;30039;51.462;6.892;2024-01-30T14:59:20;10.40;;;5.15;;
44328;SDS011;30039;51.462;6.892;2024-01-30T15:02:06;8.00;;;4.82;;
44328;SDS011;30039;51.462;6.892;2024-01-30T15:04:52;6.55;;;4.35;;
44328;SDS011;30039;51.462;6.892;2024-01-30T15:07:38;11.55;;;4.40;;
44328;SDS011;30039;51.462;6.892;2024-01-30T15:10:23;7.47;;;3.55;;
44328;SDS011;30039;51.462;6.892;2024-01-30T15:13:09;6.95;;;3.38;;
44328;SDS011;30039;51.462;6.892;2024-01-30T15:15:56;7.25;;;3.30;;
44328;SDS011;30039;51.462;6.892;2024-01-30T15:18:42;7.82;;;3.58;;
44328;SDS011;30039;51.462;6.892;2024-01-30T15:21:28;8.45;;;3.47;;
44328;SDS011;30039;51.462;6.892;2024-01-30T15:24:14;8.05;;;3.63;;
44328;SDS011;30039;51.462;6.892;2024-01-30T15:27:00;7.75;;;3.55;;
44328;SDS011;30039;51.462;6.892;2024-01-30T15:29:46;5.78;;;3.22;;
44328;SDS011;30039;51.462;6.892;2024-01-30T15:32:31;7.57;;;2.85;;
44328;SDS011;30039;51.462;6.892;2024-01-30T15:35:17;4.07;;;1.92;;
44328;SDS011;30039;51.462;6.892;2024-01-30T15:38:03;6.30;;;2.10;;
44328;SDS011;30039;51.462;6.892;2024-01-30T15:40:48;6.75;;;1.70;;
44328;SDS011;30039;51.462;6.892;2024-01-30T15:43:34;3.00;;;1.50;;
44328;SDS011;30039;51.462;6.892;2024-01-30T15:46:20;5.03;;;1.95;;
44328;SDS011;30039;51.462;6.892;2024-01-30T15:49:06;4.47;;;1.50;;
44328;SDS011;30039;51.462;6.892;2024-01-30T15:51:52;6.22;;;1.50;;
44328;SDS011;30039;51.462;6.892;2024-01-30T15:54:37;3.35;;;1.58;;
44328;SDS011;30039;51.462;6.892;2024-01-30T15:57:23;3.65;;;1.33;;
44328;SDS011;30039;51.462;6.892;2024-01-30T16:00:09;3.80;;;1.85;;
44328;SDS011;30039;51.462;6.892;2024-01-30T16:02:57;2.40;;;1.27;;
44328;SDS011;30039;51.462;6.892;2024-01-30T16:05:45;3.00;;;1.10;;
44328;SDS011;30039;51.462;6.892;2024-01-30T16:08:31;4.20;;;1.20;;
44328;SDS011;30039;51.462;6.892;2024-01-30T16:11:16;3.50;;;1.23;;
44328;SDS011;30039;51.462;6.892;2024-01-30T16:14:03;2.33;;;0.98;;
44328;SDS011;30039;51.462;6.892;2024-01-30T16:16:48;2.15;;;1.13;;
44328;SDS011;30039;51.462;6.892;2024-01-30T16:19:34;4.90;;;1.40;;
44328;SDS011;30039;51.462;6.892;2024-01-30T16:22:20;2.25;;;1.25;;
44328;SDS011;30039;51.462;6.892;2024-01-30T16:25:05;3.90;;;1.48;;
44328;SDS011;30039;51.462;6.892;2024-01-30T16:27:51;4.30;;;1.55;;
44328;SDS011;30039;51.462;6.892;2024-01-30T16:30:37;2.63;;;1.23;;
44328;SDS011;30039;51.462;6.892;2024-01-30T16:33:22;4.57;;;1.58;;
44328;SDS011;30039;51.462;6.892;2024-01-30T16:36:08;3.25;;;1.20;;